Time;durP1;ratioP1;P1;durP2;ratioP2;P2;SDS_P1;SDS_P2;PMS_P1;PMS_P2;Temp;Humidity;BMP_temperature;BMP_pressure;BME280_temperature;BME280_humidity;BME280_pressure;Samples;Min_cycle;Max_cycle;Signal;HPM_P1;HPM_P2
2021/07/13 00:00:37;;;;;;;3.30;1.87;;;20.80;87.40;;;;;;5053815;28;20430;-75
2021/07/13 00:03:05;;;;;;;3.53;1.80;;;20.70;86.90;;;;;;5052437;28;20510;-75
2021/07/13 00:05:32;;;;;;;5.10;2.13;;;20.50;87.40;;;;;;5047486;28;20416;-74
2021/07/13 00:07:58;;;;;;;5.30;1.80;;;20.40;87.60;;;;;;5046947;28;20489;-75
2021/07/13 00:10:26;;;;;;;4.10;1.67;;;20.40;88.00;;;;;;5050773;28;20806;-75
2021/07/13 00:12:53;;;;;;;3.40;2.00;;;20.40;87.80;;;;;;5049712;28;20434;-75
2021/07/13 00:15:25;;;;;;;2.97;1.67;;;20.40;87.80;;;;;;5047774;28;20432;-76
2021/07/13 00:17:53;;;;;;;2.23;1.53;;;20.50;87.60;;;;;;5049412;28;20492;-75
2021/07/13 00:20:19;;;;;;;4.40;1.77;;;20.40;87.40;;;;;;5045395;28;20447;-77
2021/07/13 00:22:45;;;;;;;4.00;1.63;;;20.40;87.60;;;;;;5047001;28;20504;-76
2021/07/13 00:25:13;;;;;;;3.00;2.10;;;20.30;88.00;;;;;;5045002;28;20513;-75
2021/07/13 00:27:40;;;;;;;7.27;1.63;;;20.30;88.30;;;;;;5046575;28;20491;-76
2021/07/13 00:30:08;;;;;;;4.10;1.80;;;20.20;88.70;;;;;;5049079;28;20489;-76
2021/07/13 00:32:34;;;;;;;4.07;1.77;;;20.20;88.90;;;;;;5050609;28;20419;-77
2021/07/13 00:34:59;;;;;;;2.30;1.63;;;20.20;89.30;;;;;;5053376;28;20440;-75
2021/07/13 00:37:25;;;;;;;3.10;1.40;;;20.10;89.50;;;;;;5042375;28;20208;-75
2021/07/13 00:39:51;;;;;;;2.80;1.73;;;20.20;89.70;;;;;;5046354;28;20210;-74
2021/07/13 00:42:17;;;;;;;3.93;2.10;;;20.20;89.20;;;;;;5049751;28;20231;-76
2021/07/13 00:44:45;;;;;;;3.10;1.90;;;20.10;89.70;;;;;;5044283;28;20206;-75
2021/07/13 00:47:12;;;;;;;3.47;2.20;;;20.10;90.00;;;;;;5049566;28;20422;-76
2021/07/13 00:49:38;;;;;;;3.30;2.10;;;20.10;90.10;;;;;;5042037;28;20442;-76
2021/07/13 00:52:07;;;;;;;6.77;2.90;;;20.10;90.30;;;;;;5049615;28;20520;-76
2021/07/13 00:54:35;;;;;;;4.43;2.53;;;20.10;90.40;;;;;;5051064;28;20423;-79
2021/07/13 00:57:07;;;;;;;8.00;2.90;;;20.00;91.00;;;;;;5053292;28;20782;-77
2021/07/13 00:59:32;;;;;;;4.23;2.90;;;19.90;91.70;;;;;;5052862;28;20983;-78
2021/07/13 01:01:58;;;;;;;5.87;2.57;;;19.90;92.00;;;;;;5043996;28;20496;-76
2021/07/13 01:04:24;;;;;;;4.57;2.87;;;19.90;92.10;;;;;;5046300;28;20221;-76
2021/07/13 01:07:17;;;;;;;4.70;2.37;;;19.70;92.50;;;;;;5048220;28;20216;-75
2021/07/13 01:09:47;;;;;;;3.73;2.60;;;19.70;92.60;;;;;;5053104;28;20220;-76
2021/07/13 01:12:26;;;;;;;4.00;2.43;;;19.70;92.50;;;;;;5051949;28;20447;-76
2021/07/13 01:14:57;;;;;;;5.43;2.57;;;19.70;92.60;;;;;;5050465;28;20433;-74
2021/07/13 01:17:32;;;;;;;7.87;2.40;;;19.70;92.70;;;;;;5058007;28;20473;-75
2021/07/13 01:20:27;;;;;;;5.33;2.10;;;19.70;92.70;;;;;;5058451;28;20443;-74
2021/07/13 01:23:13;;;;;;;3.80;2.00;;;19.60;92.70;;;;;;5049075;28;20430;-75
2021/07/13 01:25:39;;;;;;;2.97;2.20;;;19.40;93.70;;;;;;5047026;28;20527;-76
2021/07/13 01:28:12;;;;;;;7.57;2.40;;;19.20;94.40;;;;;;5045280;28;20502;-75
2021/07/13 01:30:43;;;;;;;5.73;2.00;;;19.20;94.70;;;;;;5046750;28;20219;-75
2021/07/13 01:33:13;;;;;;;4.90;2.07;;;19.20;94.80;;;;;;5042667;28;20462;-76
2021/07/13 01:36:01;;;;;;;4.10;2.23;;;19.30;94.70;;;;;;5045883;28;21037;-76
2021/07/13 01:38:30;;;;;;;7.23;2.20;;;19.40;94.50;;;;;;5048661;28;21058;-75
2021/07/13 01:41:08;;;;;;;4.13;2.00;;;19.20;94.50;;;;;;5049359;28;20419;-76
2021/07/13 01:43:38;;;;;;;3.43;2.30;;;19.10;94.80;;;;;;5047939;28;20795;-75
2021/07/13 01:46:06;;;;;;;4.57;2.37;;;19.00;94.90;;;;;;5042815;28;20427;-76
2021/07/13 01:48:33;;;;;;;6.30;2.40;;;19.00;95.50;;;;;;5044855;28;20431;-74
2021/07/13 01:51:01;;;;;;;3.23;2.00;;;19.10;95.50;;;;;;5047787;28;20427;-75
2021/07/13 01:53:30;;;;;;;4.20;1.97;;;19.20;95.70;;;;;;5045296;28;20434;-74
2021/07/13 01:55:57;;;;;;;10.23;2.10;;;19.10;95.50;;;;;;5046175;28;20480;-76
2021/07/13 01:58:28;;;;;;;4.90;1.83;;;19.10;95.60;;;;;;5044074;28;20460;-75
2021/07/13 02:00:57;;;;;;;7.13;2.20;;;19.10;95.60;;;;;;5045800;28;20445;-76
2021/07/13 02:03:24;;;;;;;3.50;1.93;;;18.90;96.00;;;;;;5047930;28;20437;-75
2021/07/13 02:05:52;;;;;;;6.63;2.47;;;18.80;96.60;;;;;;5043713;28;20443;-76
2021/07/13 02:08:20;;;;;;;6.93;3.40;;;18.60;97.30;;;;;;5046993;28;20474;-75
2021/07/13 02:10:46;;;;;;;3.33;1.67;;;18.50;98.00;;;;;;5041433;28;20507;-74
2021/07/13 02:13:13;;;;;;;2.60;1.80;;;18.30;98.20;;;;;;5051120;28;20427;-76
2021/07/13 02:15:39;;;;;;;11.80;2.67;;;18.20;98.50;;;;;;5052354;28;20181;-75
2021/07/13 02:18:05;;;;;;;5.70;2.40;;;18.20;98.90;;;;;;5051858;28;20585;-75
2021/07/13 02:20:31;;;;;;;5.50;1.70;;;18.10;99.10;;;;;;5052872;28;20246;-74
2021/07/13 02:22:57;;;;;;;5.13;1.63;;;18.10;99.40;;;;;;5052434;28;20191;-75
2021/07/13 02:25:23;;;;;;;2.97;1.90;;;18.10;99.40;;;;;;5052551;28;20509;-75
2021/07/13 02:28:08;;;;;;;5.73;2.00;;;18.00;99.30;;;;;;5051117;28;20754;-75
2021/07/13 02:30:36;;;;;;;5.63;2.03;;;18.00;99.60;;;;;;5050083;28;20442;-74
2021/07/13 02:33:10;;;;;;;5.63;2.57;;;18.00;99.70;;;;;;5043897;28;20435;-76
2021/07/13 02:35:59;;;;;;;3.67;1.97;;;18.00;99.50;;;;;;5040676;28;20654;-75
2021/07/13 02:38:27;;;;;;;9.33;3.10;;;18.00;99.70;;;;;;5056191;28;20818;-76
2021/07/13 02:40:53;;;;;;;7.00;2.73;;;18.00;99.90;;;;;;5051076;28;20427;-76
2021/07/13 02:43:20;;;;;;;4.70;2.57;;;18.00;99.90;;;;;;5051832;28;20420;-75
2021/07/13 02:45:46;;;;;;;3.40;2.30;;;18.00;99.90;;;;;;5034393;28;20431;-75
2021/07/13 02:48:13;;;;;;;3.07;1.73;;;18.00;99.90;;;;;;5046307;28;20424;-75
2021/07/13 02:50:40;;;;;;;4.77;2.57;;;18.00;99.90;;;;;;5050887;28;20439;-74
2021/07/13 02:53:08;;;;;;;5.40;2.80;;;18.00;99.90;;;;;;5051030;28;20502;-75
2021/07/13 02:55:34;;;;;;;4.33;3.03;;;18.00;99.90;;;;;;5045114;28;20425;-76
2021/07/13 02:58:03;;;;;;;6.43;2.83;;;18.10;99.90;;;;;;5043525;28;20474;-77
2021/07/13 03:00:30;;;;;;;4.27;2.70;;;18.20;99.90;;;;;;5051684;28;20839;-77
2021/07/13 03:02:56;;;;;;;5.10;2.97;;;18.20;99.90;;;;;;5051109;28;20427;-76
2021/07/13 03:05:26;;;;;;;4.43;2.77;;;18.20;99.90;;;;;;5051728;28;20414;-76
2021/07/13 03:07:53;;;;;;;4.30;2.73;;;18.20;99.90;;;;;;5050044;28;20419;-76
2021/07/13 03:10:24;;;;;;;6.93;3.20;;;18.20;99.90;;;;;;5048014;28;20443;-75
2021/07/13 03:12:52;;;;;;;6.93;2.97;;;18.20;99.90;;;;;;5048930;28;20429;-75
2021/07/13 03:15:28;;;;;;;8.07;3.93;;;18.20;99.90;;;;;;5037724;28;20437;-76
2021/07/13 03:17:54;;;;;;;7.03;2.93;;;18.30;99.90;;;;;;5049374;28;20517;-75
2021/07/13 03:20:22;;;;;;;3.03;2.40;;;18.30;99.90;;;;;;5053810;28;20478;-77
2021/07/13 03:22:50;;;;;;;5.13;2.90;;;18.30;99.90;;;;;;5054586;28;20420;-76
2021/07/13 03:25:21;;;;;;;4.93;2.50;;;18.30;99.90;;;;;;5053761;28;20519;-75
2021/07/13 03:27:50;;;;;;;7.30;3.27;;;18.40;99.90;;;;;;5052690;28;20772;-77
2021/07/13 03:30:17;;;;;;;3.63;2.30;;;18.40;99.90;;;;;;5046355;28;20452;-75
2021/07/13 03:32:43;;;;;;;4.23;2.50;;;18.40;99.90;;;;;;5044461;28;20423;-76
2021/07/13 03:35:10;;;;;;;4.60;2.60;;;18.50;99.90;;;;;;5055346;28;20448;-76
2021/07/13 03:37:36;;;;;;;5.03;3.13;;;18.50;99.90;;;;;;5053194;28;20500;-77
2021/07/13 03:40:06;;;;;;;4.37;3.00;;;18.50;99.90;;;;;;5049461;28;20521;-76
2021/07/13 03:42:32;;;;;;;4.23;2.67;;;18.50;99.90;;;;;;5051240;28;20857;-76
2021/07/13 03:44:58;;;;;;;6.00;2.70;;;18.60;99.90;;;;;;5054251;28;20468;-76
2021/07/13 03:47:24;;;;;;;5.33;3.00;;;18.60;99.90;;;;;;5051285;28;20274;-76
2021/07/13 03:49:50;;;;;;;8.63;3.77;;;18.60;99.90;;;;;;5044021;28;20209;-76
2021/07/13 03:52:17;;;;;;;5.73;3.33;;;18.60;99.90;;;;;;5046453;28;20627;-76
2021/07/13 03:54:44;;;;;;;5.00;3.10;;;18.60;99.90;;;;;;5051751;28;20779;-75
2021/07/13 03:57:10;;;;;;;4.90;3.47;;;18.60;99.90;;;;;;5050800;28;20421;-76
2021/07/13 03:59:36;;;;;;;7.40;3.70;;;18.70;99.90;;;;;;5049784;28;20466;-77
2021/07/13 04:02:02;;;;;;;5.80;3.50;;;18.70;99.90;;;;;;5049617;28;20416;-77
2021/07/13 04:04:28;;;;;;;5.20;3.47;;;18.70;99.90;;;;;;5053765;28;20437;-76
2021/07/13 04:06:54;;;;;;;5.13;3.47;;;18.70;99.90;;;;;;5047917;28;20850;-76
2021/07/13 04:09:19;;;;;;;5.17;3.57;;;18.80;99.90;;;;;;5046891;28;20789;-77
2021/07/13 04:11:45;;;;;;;6.40;4.80;;;18.80;99.90;;;;;;5048399;28;20530;-77
2021/07/13 04:14:11;;;;;;;9.03;4.93;;;18.80;99.90;;;;;;5057092;28;20249;-77
2021/07/13 04:16:37;;;;;;;13.13;5.37;;;18.80;99.90;;;;;;5054536;28;20456;-76
2021/07/13 04:19:04;;;;;;;7.50;5.27;;;18.80;99.90;;;;;;5057789;28;20208;-76
2021/07/13 04:21:30;;;;;;;8.73;4.40;;;18.90;99.90;;;;;;5052580;28;20446;-76
2021/07/13 04:23:56;;;;;;;9.53;5.80;;;18.90;99.90;;;;;;5054458;28;20424;-77
2021/07/13 04:26:22;;;;;;;7.37;4.90;;;18.90;99.90;;;;;;5057724;28;20431;-75
2021/07/13 04:28:48;;;;;;;7.90;5.03;;;18.90;99.90;;;;;;5055644;28;20441;-76
2021/07/13 04:31:14;;;;;;;8.83;5.30;;;18.90;99.90;;;;;;5058985;28;20452;-76
2021/07/13 04:33:40;;;;;;;10.83;5.60;;;18.90;99.90;;;;;;5043973;28;20191;-74
2021/07/13 04:36:05;;;;;;;11.00;6.23;;;18.90;99.90;;;;;;5043027;28;20202;-73
2021/07/13 04:38:31;;;;;;;7.77;5.50;;;18.90;99.90;;;;;;5047022;28;20245;-73
2021/07/13 04:40:57;;;;;;;6.93;4.70;;;18.90;99.80;;;;;;5046768;28;20196;-76
2021/07/13 04:43:23;;;;;;;8.10;5.80;;;19.00;99.70;;;;;;5050040;28;20188;-73
2021/07/13 04:45:49;;;;;;;8.23;5.13;;;19.00;99.70;;;;;;5052053;28;20197;-73
2021/07/13 04:48:15;;;;;;;13.53;7.47;;;19.10;99.80;;;;;;5049557;28;20237;-73
2021/07/13 04:50:41;;;;;;;10.27;6.27;;;19.20;99.80;;;;;;5043310;28;20452;-74
2021/07/13 04:53:07;;;;;;;7.17;5.13;;;19.20;99.80;;;;;;5048609;28;20426;-73
2021/07/13 04:55:33;;;;;;;14.70;5.33;;;19.20;98.80;;;;;;5050017;28;20530;-74
2021/07/13 04:57:58;;;;;;;8.50;5.70;;;19.20;98.70;;;;;;5047797;28;20295;-74
2021/07/13 05:00:24;;;;;;;9.00;5.53;;;19.30;98.90;;;;;;5049612;28;20573;-75
2021/07/13 05:02:50;;;;;;;9.00;5.40;;;19.30;98.60;;;;;;5045118;28;20424;-74
2021/07/13 05:05:17;;;;;;;7.83;4.70;;;19.30;98.70;;;;;;5049064;28;20305;-74
2021/07/13 05:07:47;;;;;;;6.13;4.40;;;19.30;98.00;;;;;;5052539;28;20244;-75
2021/07/13 05:10:14;;;;;;;5.97;4.50;;;19.20;97.50;;;;;;5045657;28;20458;-75
2021/07/13 05:12:41;;;;;;;7.13;4.50;;;19.30;97.60;;;;;;5054860;28;20431;-75
2021/07/13 05:15:08;;;;;;;7.47;4.73;;;19.30;97.60;;;;;;5049720;28;20971;-76
2021/07/13 05:17:38;;;;;;;8.40;3.63;;;19.40;97.90;;;;;;5049852;28;20998;-76
2021/07/13 05:20:10;;;;;;;6.03;3.80;;;19.40;98.10;;;;;;5049131;28;20918;-76
2021/07/13 05:22:36;;;;;;;6.70;3.73;;;19.40;97.60;;;;;;5047721;28;20419;-76
2021/07/13 05:25:04;;;;;;;5.00;4.10;;;19.50;97.50;;;;;;5044041;28;20416;-75
2021/07/13 05:27:38;;;;;;;5.83;4.00;;;19.50;97.60;;;;;;5047207;28;20456;-73
2021/07/13 05:30:05;;;;;;;7.40;3.97;;;19.60;97.90;;;;;;5048404;28;20968;-75
2021/07/13 05:32:31;;;;;;;6.60;3.57;;;19.70;97.50;;;;;;5049754;28;20786;-75
2021/07/13 05:34:57;;;;;;;4.50;3.27;;;19.60;96.10;;;;;;5040317;28;20430;-77
2021/07/13 05:37:22;;;;;;;7.53;4.13;;;19.70;96.00;;;;;;5053429;28;20239;-74
2021/07/13 05:39:48;;;;;;;8.53;3.30;;;19.70;96.20;;;;;;5044904;28;20216;-76
2021/07/13 05:42:14;;;;;;;7.13;4.10;;;19.70;96.40;;;;;;5051057;28;20222;-77
2021/07/13 05:44:40;;;;;;;7.33;3.63;;;19.80;96.30;;;;;;5043562;28;20521;-76
2021/07/13 05:47:06;;;;;;;3.60;3.20;;;19.80;96.50;;;;;;5050094;28;20513;-75
2021/07/13 05:49:32;;;;;;;5.27;3.80;;;19.80;96.60;;;;;;5041157;28;20236;-76
2021/07/13 05:51:57;;;;;;;5.63;3.80;;;19.80;96.70;;;;;;5042800;28;20188;-77
2021/07/13 05:54:23;;;;;;;6.20;4.00;;;19.90;96.70;;;;;;5047419;28;20267;-75
2021/07/13 05:56:49;;;;;;;8.57;4.50;;;19.90;96.70;;;;;;5047901;28;20195;-75
2021/07/13 05:59:15;;;;;;;8.47;5.17;;;20.00;96.60;;;;;;5044201;28;20315;-74
2021/07/13 06:01:40;;;;;;;8.23;4.40;;;20.00;96.40;;;;;;5045473;28;20189;-75
2021/07/13 06:04:06;;;;;;;6.93;3.87;;;20.10;96.20;;;;;;5040787;28;20826;-75
2021/07/13 06:06:32;;;;;;;6.43;4.00;;;20.00;95.70;;;;;;5043550;28;20199;-77
2021/07/13 06:08:57;;;;;;;6.30;3.87;;;20.00;95.20;;;;;;5039599;28;20284;-76
2021/07/13 06:11:23;;;;;;;6.50;4.40;;;19.60;95.20;;;;;;5043656;28;20190;-74
2021/07/13 06:13:49;;;;;;;8.23;4.60;;;19.50;95.80;;;;;;5045977;28;20196;-74
2021/07/13 06:16:14;;;;;;;7.60;4.50;;;19.50;96.10;;;;;;5048497;28;20299;-74
2021/07/13 06:18:40;;;;;;;9.37;4.73;;;19.50;96.40;;;;;;5041994;28;20241;-76
2021/07/13 06:21:08;;;;;;;7.47;5.10;;;19.40;96.70;;;;;;5047828;28;20233;-75
2021/07/13 06:23:35;;;;;;;6.30;4.80;;;19.20;97.00;;;;;;5043512;28;20237;-75
2021/07/13 06:26:01;;;;;;;12.63;5.90;;;19.10;97.50;;;;;;5046952;28;20428;-75
2021/07/13 06:28:26;;;;;;;10.33;5.37;;;19.00;98.30;;;;;;5046419;28;20452;-75
2021/07/13 06:30:52;;;;;;;6.17;5.20;;;19.00;98.80;;;;;;5045158;28;20212;-75
2021/07/13 06:33:18;;;;;;;6.90;4.80;;;19.00;98.80;;;;;;5044630;28;20186;-75
2021/07/13 06:35:46;;;;;;;6.40;4.03;;;19.00;99.10;;;;;;5050548;28;20211;-75
2021/07/13 06:38:12;;;;;;;6.90;4.67;;;19.00;99.30;;;;;;5042344;28;20211;-77
2021/07/13 06:40:38;;;;;;;14.60;4.33;;;19.10;99.20;;;;;;5044528;28;20449;-76
2021/07/13 06:43:04;;;;;;;14.43;5.17;;;19.20;98.70;;;;;;5045950;28;20181;-75
2021/07/13 06:45:29;;;;;;;7.47;3.97;;;19.20;98.40;;;;;;5042524;28;20203;-75
2021/07/13 06:47:55;;;;;;;17.87;5.10;;;19.20;98.20;;;;;;5045944;28;20191;-77
2021/07/13 06:50:26;;;;;;;7.40;3.27;;;19.30;98.30;;;;;;5041568;28;20455;-77
2021/07/13 06:52:53;;;;;;;6.27;3.20;;;19.30;98.10;;;;;;5042632;28;20205;-74
2021/07/13 06:55:19;;;;;;;6.87;3.17;;;19.40;97.10;;;;;;5048926;28;20431;-75
2021/07/13 06:57:45;;;;;;;6.07;3.23;;;19.30;96.70;;;;;;5049768;28;20806;-76
2021/07/13 07:00:12;;;;;;;4.17;2.57;;;19.20;96.10;;;;;;5047324;28;20440;-75
2021/07/13 07:02:38;;;;;;;3.53;2.10;;;19.20;96.40;;;;;;5048195;28;20421;-75
2021/07/13 07:05:04;;;;;;;5.90;3.13;;;19.30;96.10;;;;;;5044994;28;20425;-75
2021/07/13 07:07:30;;;;;;;3.80;2.60;;;19.40;96.10;;;;;;5048093;28;20649;-74
2021/07/13 07:09:56;;;;;;;4.10;2.60;;;19.40;96.20;;;;;;5050095;28;20448;-74
2021/07/13 07:12:21;;;;;;;5.30;2.80;;;19.40;96.30;;;;;;5053244;28;20204;-74
2021/07/13 07:14:47;;;;;;;4.17;3.07;;;19.30;96.00;;;;;;5056157;28;20281;-75
2021/07/13 07:17:13;;;;;;;3.33;2.60;;;19.20;96.30;;;;;;5049760;28;20188;-75
2021/07/13 07:19:38;;;;;;;4.27;2.77;;;19.20;96.70;;;;;;5049147;28;20219;-75
2021/07/13 07:22:04;;;;;;;4.60;2.80;;;19.20;96.80;;;;;;5044418;28;20184;-74
2021/07/13 07:24:30;;;;;;;4.33;2.93;;;19.20;97.10;;;;;;5041562;28;20243;-76
2021/07/13 07:26:56;;;;;;;4.63;2.77;;;19.20;97.60;;;;;;5046065;28;20215;-77
2021/07/13 07:29:21;;;;;;;5.30;3.10;;;19.20;97.70;;;;;;5049311;28;20770;-75
2021/07/13 07:31:47;;;;;;;4.97;3.13;;;19.20;97.90;;;;;;5044042;28;20242;-75
2021/07/13 07:34:13;;;;;;;5.53;3.23;;;19.10;98.10;;;;;;5048614;28;20643;-76
2021/07/13 07:36:39;;;;;;;5.00;2.97;;;19.20;98.60;;;;;;5040692;28;20642;-77
2021/07/13 07:39:05;;;;;;;4.80;2.97;;;19.10;98.80;;;;;;5045106;28;20214;-77
2021/07/13 07:41:31;;;;;;;7.83;3.20;;;19.10;98.10;;;;;;5044697;28;20190;-76
2021/07/13 07:43:59;;;;;;;5.97;3.70;;;19.10;98.30;;;;;;5052114;28;20421;-75
2021/07/13 07:46:25;;;;;;;7.17;3.97;;;19.10;98.60;;;;;;5050768;28;20212;-77
2021/07/13 07:48:50;;;;;;;7.63;4.40;;;19.10;98.80;;;;;;5050408;28;20548;-78
2021/07/13 07:51:16;;;;;;;5.70;3.90;;;19.10;99.10;;;;;;5048108;28;20253;-76
2021/07/13 07:53:42;;;;;;;4.53;3.03;;;19.10;99.30;;;;;;5044208;28;20191;-78
2021/07/13 07:56:07;;;;;;;7.93;3.53;;;19.00;99.40;;;;;;5047949;28;20190;-77
2021/07/13 07:58:33;;;;;;;6.40;3.67;;;19.00;99.40;;;;;;5042025;28;20351;-77
2021/07/13 08:00:59;;;;;;;6.10;3.47;;;19.00;99.40;;;;;;5046721;28;20199;-74
2021/07/13 08:03:25;;;;;;;6.93;3.73;;;19.00;99.10;;;;;;5043267;28;20559;-78
2021/07/13 08:05:55;;;;;;;9.33;3.50;;;18.90;99.10;;;;;;5048812;28;20187;-77
2021/07/13 08:08:23;;;;;;;4.20;3.00;;;19.00;99.00;;;;;;5050799;28;20216;-79
2021/07/13 08:10:49;;;;;;;6.50;2.97;;;19.00;98.30;;;;;;5049219;28;20567;-78
2021/07/13 08:13:15;;;;;;;12.43;4.00;;;19.10;98.10;;;;;;5051656;28;20862;-77
2021/07/13 08:15:41;;;;;;;5.90;3.10;;;19.10;98.10;;;;;;5052548;28;20202;-77
2021/07/13 08:18:07;;;;;;;4.73;3.00;;;19.10;98.00;;;;;;5047951;28;20212;-75
2021/07/13 08:20:33;;;;;;;9.50;3.53;;;19.00;97.50;;;;;;5049542;28;20206;-74
2021/07/13 08:22:58;;;;;;;5.30;3.43;;;19.00;97.90;;;;;;5049188;28;20443;-77
2021/07/13 08:25:24;;;;;;;7.13;3.50;;;19.10;98.10;;;;;;5051321;28;21067;-78
2021/07/13 08:27:50;;;;;;;9.90;4.43;;;19.00;98.00;;;;;;5049424;28;20235;-76
2021/07/13 08:30:16;;;;;;;6.27;3.10;;;19.10;98.20;;;;;;5053704;28;20310;-77
2021/07/13 08:32:43;;;;;;;5.70;3.60;;;19.10;98.10;;;;;;5050194;28;20427;-76
2021/07/13 08:35:09;;;;;;;4.93;3.13;;;19.10;97.80;;;;;;5050633;28;20511;-76
2021/07/13 08:37:35;;;;;;;4.27;3.30;;;19.20;97.90;;;;;;5047269;28;20428;-76
2021/07/13 08:40:04;;;;;;;10.10;3.80;;;19.30;97.90;;;;;;5053755;28;20442;-76
2021/07/13 08:42:36;;;;;;;9.30;3.80;;;19.40;98.10;;;;;;5052776;28;20185;-75
2021/07/13 08:45:05;;;;;;;7.80;4.53;;;19.40;98.00;;;;;;5040120;28;20419;-77
2021/07/13 08:47:38;;;;;;;8.63;4.43;;;19.40;98.10;;;;;;5045598;28;20416;-76
2021/07/13 08:50:05;;;;;;;6.00;3.90;;;19.40;98.10;;;;;;5038503;28;20465;-75
2021/07/13 08:52:32;;;;;;;7.90;4.00;;;19.40;98.20;;;;;;5043177;28;20430;-74
2021/07/13 08:54:58;;;;;;;7.93;4.63;;;19.40;97.40;;;;;;5046134;28;20422;-77
2021/07/13 08:57:24;;;;;;;8.30;4.73;;;19.40;97.50;;;;;;5044739;28;20449;-77
2021/07/13 08:59:50;;;;;;;9.93;4.80;;;19.40;97.70;;;;;;5051564;28;20483;-79
2021/07/13 09:02:16;;;;;;;13.03;6.70;;;19.40;97.80;;;;;;5045557;28;20191;-76
2021/07/13 09:04:42;;;;;;;11.93;5.00;;;19.40;97.60;;;;;;5050371;28;20603;-76
2021/07/13 09:07:09;;;;;;;8.83;5.57;;;19.30;97.80;;;;;;5047284;28;20651;-78
2021/07/13 09:09:40;;;;;;;10.23;6.10;;;19.30;98.00;;;;;;5050725;28;20507;-75
2021/07/13 09:12:19;;;;;;;8.67;5.80;;;19.30;98.40;;;;;;5048395;28;20416;-76
2021/07/13 09:15:02;;;;;;;7.30;4.30;;;19.30;98.70;;;;;;5047081;28;20936;-75
2021/07/13 09:17:41;;;;;;;7.63;3.70;;;19.00;98.50;;;;;;5051638;28;20458;-76
2021/07/13 09:20:10;;;;;;;3.40;2.10;;;18.70;98.00;;;;;;5045289;28;20463;-77
2021/07/13 09:22:38;;;;;;;2.63;1.73;;;18.30;97.90;;;;;;5048322;28;20433;-77
2021/07/13 09:25:27;;;;;;;5.40;1.57;;;18.00;99.10;;;;;;5049055;28;20426;-78
2021/07/13 09:28:13;;;;;;;3.57;1.70;;;17.70;99.90;;;;;;5053799;28;20462;-76
2021/07/13 09:30:42;;;;;;;3.13;2.23;;;17.50;99.90;;;;;;5053074;28;20837;-75
2021/07/13 09:33:18;;;;;;;8.50;2.07;;;17.50;99.90;;;;;;5045168;28;20465;-73
2021/07/13 09:36:07;;;;;;;2.60;1.73;;;17.40;99.90;;;;;;5053212;28;20494;-76
2021/07/13 09:38:36;;;;;;;5.77;1.23;;;17.40;99.90;;;;;;5053269;28;20462;-76
2021/07/13 09:41:15;;;;;;;1.70;0.90;;;17.40;99.90;;;;;;5056788;28;20491;-75
2021/07/13 09:43:50;;;;;;;3.00;1.27;;;17.20;99.90;;;;;;5053993;28;20429;-77
2021/07/13 09:46:29;;;;;;;3.57;1.00;;;17.10;99.90;;;;;;5053006;28;20414;-75
2021/07/13 09:49:15;;;;;;;1.53;1.00;;;17.10;99.90;;;;;;5053214;28;20444;-75
2021/07/13 09:51:44;;;;;;;3.67;0.90;;;17.00;99.90;;;;;;5052017;28;20426;-76
2021/07/13 09:54:38;;;;;;;2.23;0.80;;;16.90;99.90;;;;;;5052721;28;20565;-77
2021/07/13 09:57:14;;;;;;;1.10;0.70;;;16.90;99.90;;;;;;5044001;28;20440;-76
2021/07/13 09:59:40;;;;;;;0.83;0.60;;;16.80;99.90;;;;;;5050270;28;20556;-78
2021/07/13 10:02:08;;;;;;;3.53;1.00;;;16.70;99.90;;;;;;5051594;28;20423;-77
2021/07/13 10:04:36;;;;;;;1.30;0.90;;;16.60;99.90;;;;;;5052737;28;20499;-76
2021/07/13 10:07:11;;;;;;;1.60;0.80;;;16.60;99.90;;;;;;5051204;28;20407;-76
2021/07/13 10:09:42;;;;;;;2.03;1.00;;;16.60;99.90;;;;;;5052418;28;20843;-77
2021/07/13 10:12:12;;;;;;;1.27;0.97;;;16.50;99.60;;;;;;5044874;28;20424;-76
2021/07/13 10:14:39;;;;;;;1.43;0.80;;;16.60;99.90;;;;;;5051916;28;20418;-76
2021/07/13 10:17:07;;;;;;;1.20;0.70;;;16.80;99.90;;;;;;5052107;28;20418;-76
2021/07/13 10:19:45;;;;;;;1.30;0.90;;;16.80;99.90;;;;;;5052419;28;20478;-78
2021/07/13 10:22:12;;;;;;;3.97;1.47;;;16.90;99.80;;;;;;5050713;28;20941;-76
2021/07/13 10:24:38;;;;;;;4.77;1.60;;;16.90;99.70;;;;;;5045561;28;20424;-77
2021/07/13 10:27:11;;;;;;;2.60;1.10;;;17.00;99.70;;;;;;5051856;28;20461;-75
2021/07/13 10:29:38;;;;;;;1.40;0.80;;;17.00;99.30;;;;;;5051939;28;20956;-74
2021/07/13 10:32:28;;;;;;;2.83;0.70;;;16.90;98.70;;;;;;5051401;28;20427;-76
2021/07/13 10:35:04;;;;;;;1.63;0.67;;;17.00;98.80;;;;;;5046796;28;21146;-75
2021/07/13 10:37:45;;;;;;;1.20;0.60;;;17.00;98.50;;;;;;5049871;28;20494;-75
2021/07/13 10:40:27;;;;;;;3.40;0.83;;;17.10;98.60;;;;;;5046126;28;20526;-77
2021/07/13 10:42:57;;;;;;;2.37;0.70;;;17.00;99.40;;;;;;5050947;28;20523;-76
2021/07/13 10:45:41;;;;;;;2.27;0.80;;;16.90;99.50;;;;;;5050903;28;20997;-75
2021/07/13 10:48:17;;;;;;;1.60;0.90;;;16.70;98.80;;;;;;5043313;28;20423;-75
2021/07/13 10:51:01;;;;;;;2.73;0.50;;;16.60;98.60;;;;;;5051158;28;20826;-76
2021/07/13 10:53:41;;;;;;;1.50;0.63;;;16.50;97.60;;;;;;5045781;28;20439;-75
2021/07/13 10:56:17;;;;;;;1.27;0.53;;;16.40;97.90;;;;;;5044831;28;20492;-75
2021/07/13 10:58:45;;;;;;;2.80;0.67;;;16.40;98.20;;;;;;5044538;28;20463;-76
2021/07/13 11:01:14;;;;;;;1.63;0.70;;;16.30;98.80;;;;;;5050901;28;20419;-75
2021/07/13 11:03:40;;;;;;;3.53;0.70;;;16.20;99.10;;;;;;5048488;28;20859;-75
2021/07/13 11:06:07;;;;;;;0.77;0.60;;;16.20;99.20;;;;;;5045159;28;20418;-75
2021/07/13 11:08:39;;;;;;;1.00;0.60;;;16.20;99.00;;;;;;5049733;28;20306;-76
2021/07/13 11:11:14;;;;;;;2.70;1.37;;;16.40;99.20;;;;;;5042854;28;20431;-75
2021/07/13 11:13:42;;;;;;;10.50;0.80;;;16.60;98.80;;;;;;5043595;28;20521;-76
2021/07/13 11:16:08;;;;;;;1.57;0.70;;;16.70;98.00;;;;;;5050303;28;20944;-76
2021/07/13 11:18:36;;;;;;;1.73;0.80;;;16.60;98.50;;;;;;5040831;28;20999;-75
2021/07/13 11:21:15;;;;;;;0.77;0.50;;;16.60;98.80;;;;;;5049323;28;20424;-76
2021/07/13 11:23:42;;;;;;;2.10;0.80;;;16.60;98.60;;;;;;5039530;28;20450;-76
2021/07/13 11:26:09;;;;;;;1.43;0.60;;;16.60;98.80;;;;;;5048116;28;20768;-74
2021/07/13 11:28:36;;;;;;;3.13;0.80;;;16.50;99.00;;;;;;5046782;28;20482;-74
2021/07/13 11:31:03;;;;;;;1.00;0.70;;;16.50;99.00;;;;;;5041973;28;20423;-74
2021/07/13 11:33:29;;;;;;;2.97;1.00;;;16.50;98.60;;;;;;5045283;28;20510;-77
2021/07/13 11:36:03;;;;;;;2.10;0.90;;;16.50;98.50;;;;;;5042535;28;20488;-75
2021/07/13 11:38:35;;;;;;;1.47;0.77;;;16.50;98.30;;;;;;5045104;28;20524;-76
2021/07/13 11:41:11;;;;;;;1.80;0.80;;;16.50;98.40;;;;;;5046724;28;20824;-74
2021/07/13 11:43:38;;;;;;;1.47;0.63;;;16.50;98.50;;;;;;5050641;28;20410;-76
2021/07/13 11:46:15;;;;;;;0.83;0.60;;;16.60;98.40;;;;;;5045146;28;20508;-76
2021/07/13 11:48:52;;;;;;;1.63;0.77;;;16.60;98.10;;;;;;5052452;28;20484;-75
2021/07/13 11:51:35;;;;;;;1.00;0.67;;;16.60;98.20;;;;;;5050572;28;20421;-75
2021/07/13 11:54:11;;;;;;;2.17;0.80;;;16.70;97.50;;;;;;5051797;28;20415;-75
2021/07/13 11:56:45;;;;;;;1.43;0.73;;;16.70;97.40;;;;;;5049564;28;20513;-76
2021/07/13 11:59:14;;;;;;;1.53;1.00;;;16.80;96.90;;;;;;5054163;28;20527;-75
2021/07/13 12:01:43;;;;;;;2.13;1.00;;;16.80;96.40;;;;;;5056087;28;20426;-74
2021/07/13 12:04:11;;;;;;;2.83;1.00;;;16.90;96.30;;;;;;5055556;28;20470;-76
2021/07/13 12:06:38;;;;;;;1.40;0.80;;;16.90;95.80;;;;;;5051996;28;21116;-75
2021/07/13 12:09:13;;;;;;;1.00;0.80;;;17.10;95.20;;;;;;5054714;28;20449;-76
2021/07/13 12:11:44;;;;;;;4.00;1.00;;;17.20;95.70;;;;;;5053912;28;20424;-75
2021/07/13 12:14:13;;;;;;;1.90;0.93;;;17.30;95.60;;;;;;5057032;28;20944;-76
2021/07/13 12:16:40;;;;;;;1.17;0.80;;;17.50;94.00;;;;;;5053388;28;20794;-76
2021/07/13 12:19:18;;;;;;;1.30;0.90;;;17.50;93.70;;;;;;5050770;28;20484;-76
2021/07/13 12:21:51;;;;;;;1.00;0.90;;;17.50;94.20;;;;;;5050515;28;20430;-76
2021/07/13 12:24:19;;;;;;;2.30;1.23;;;17.50;94.00;;;;;;5044768;28;20431;-74
2021/07/13 12:26:51;;;;;;;0.90;0.73;;;17.60;93.60;;;;;;5052256;28;20429;-75
2021/07/13 12:29:18;;;;;;;1.80;0.97;;;17.70;93.40;;;;;;5053485;28;20859;-78
2021/07/13 12:31:44;;;;;;;1.30;1.07;;;17.70;92.60;;;;;;5052937;28;20426;-74
2021/07/13 12:34:17;;;;;;;3.90;1.23;;;17.70;92.50;;;;;;5051932;28;20797;-74
2021/07/13 12:36:44;;;;;;;1.53;0.70;;;17.70;92.50;;;;;;5045668;28;20193;-75
2021/07/13 12:39:17;;;;;;;1.10;0.77;;;17.70;92.20;;;;;;5047308;28;20557;-77
2021/07/13 12:41:56;;;;;;;1.60;0.80;;;17.70;92.30;;;;;;5048999;28;20458;-75
2021/07/13 12:44:48;;;;;;;1.63;1.00;;;17.70;92.50;;;;;;5044029;28;20443;-77
2021/07/13 12:47:26;;;;;;;2.60;1.20;;;17.90;92.10;;;;;;5045097;28;20549;-77
2021/07/13 12:49:58;;;;;;;1.47;0.73;;;17.90;91.70;;;;;;5042705;28;20442;-75
2021/07/13 12:52:35;;;;;;;1.90;1.00;;;18.00;92.20;;;;;;5045191;28;20950;-76
2021/07/13 12:55:13;;;;;;;2.43;1.03;;;18.10;91.50;;;;;;5047616;28;20422;-75